Time;durP1;ratioP1;P1;durP2;ratioP2;P2;SDS_P1;SDS_P2;PMS_P1;PMS_P2;Temp;Humidity;BMP_temperature;BMP_pressure;BME280_temperature;BME280_humidity;BME280_pressure;Samples;Min_cycle;Max_cycle;Signal;HPM_P1;HPM_P2
2022/12/15 00:40:57;;;;;;;27.00;13.95;;;;;;;;;;5056339;28;20044;-66
2022/12/15 00:43:23;;;;;;;27.15;13.73;;;;;;;;;;5071051;28;20075;-66
2022/12/15 00:48:34;;;;;;;28.77;13.77;;;;;;;;;;5075953;28;20052;-67
2022/12/15 00:51:00;;;;;;;29.80;13.80;;;;;;;;;;5076368;28;20040;-66
2022/12/15 01:20:55;;;;;;;27.67;12.40;;;;;;;;;;5073853;28;20553;-67
2022/12/15 01:23:21;;;;;;;25.88;11.15;;;;;;;;;;5056227;28;20123;-66
2022/12/15 01:25:50;;;;;;;24.60;11.25;;;;;;;;;;5069764;28;20045;-67
2022/12/15 01:28:16;;;;;;;33.42;12.85;;;;;;;;;;5063902;28;20045;-67
2022/12/15 01:30:42;;;;;;;23.98;11.80;;;;;;;;;;5074104;28;20049;-66
2022/12/15 01:33:08;;;;;;;25.83;11.52;;;;;;;;;;5100244;22;20486;-66
2022/12/15 01:35:34;;;;;;;22.90;11.55;;;;;;;;;;5091717;28;20508;-66
2022/12/15 01:38:00;;;;;;;20.95;11.10;;;;;;;;;;5089445;28;20512;-67
2022/12/15 01:40:44;;;;;;;26.42;11.82;;;;;;;;;;5074168;28;20045;-66
2022/12/15 01:43:14;;;;;;;21.90;10.65;;;;;;;;;;5088948;28;20048;-67
2022/12/15 01:45:45;;;;;;;22.17;10.63;;;;;;;;;;5083231;28;20048;-66
2022/12/15 01:48:13;;;;;;;20.58;10.30;;;;;;;;;;5079592;28;20047;-67
2022/12/15 01:50:41;;;;;;;22.25;11.57;;;;;;;;;;5093809;28;20078;-66
2022/12/15 01:53:08;;;;;;;25.88;10.18;;;;;;;;;;5089180;28;20539;-67
2022/12/15 01:55:34;;;;;;;23.00;10.82;;;;;;;;;;5088002;28;20051;-67
2022/12/15 01:58:02;;;;;;;24.35;11.45;;;;;;;;;;5089925;28;20066;-66
2022/12/15 02:00:29;;;;;;;23.17;10.60;;;;;;;;;;5074030;28;20044;-67
2022/12/15 02:02:57;;;;;;;25.33;11.40;;;;;;;;;;5074941;28;20052;-67
2022/12/15 02:05:23;;;;;;;21.05;10.60;;;;;;;;;;5092958;28;20062;-67
2022/12/15 02:07:49;;;;;;;24.90;11.77;;;;;;;;;;5090863;28;20537;-66
2022/12/15 02:10:15;;;;;;;18.08;8.95;;;;;;;;;;5088152;28;20076;-67
2022/12/15 02:13:00;;;;;;;18.73;10.15;;;;;;;;;;5093054;28;20091;-67
2022/12/15 02:15:35;;;;;;;20.95;10.75;;;;;;;;;;5088636;28;20044;-67
2022/12/15 02:18:21;;;;;;;28.30;11.43;;;;;;;;;;5091358;28;20121;-67
2022/12/15 02:21:06;;;;;;;28.85;12.55;;;;;;;;;;5093341;28;20062;-67
2022/12/15 02:23:47;;;;;;;24.00;11.13;;;;;;;;;;5086099;28;20052;-67
2022/12/15 02:26:32;;;;;;;23.73;10.68;;;;;;;;;;5079725;28;20047;-67
2022/12/15 02:29:03;;;;;;;23.85;12.13;;;;;;;;;;5091883;28;20100;-67
2022/12/15 02:31:48;;;;;;;24.70;10.70;;;;;;;;;;5058572;28;20044;-67
2022/12/15 02:34:17;;;;;;;26.35;10.07;;;;;;;;;;5089783;28;20067;-66
2022/12/15 02:36:46;;;;;;;25.70;11.00;;;;;;;;;;5091882;28;20048;-67
2022/12/15 02:39:13;;;;;;;24.05;10.85;;;;;;;;;;5091810;28;20047;-67
2022/12/15 02:41:41;;;;;;;23.98;10.80;;;;;;;;;;5073478;28;20480;-67
2022/12/15 02:44:31;;;;;;;24.55;11.60;;;-2.60;99.90;;;;;;5081547;28;20051;-67
2022/12/15 02:47:15;;;;;;;22.75;11.13;;;;;;;;;;5035138;28;20056;-67
2022/12/15 02:49:48;;;;;;;24.98;11.43;;;;;;;;;;5089759;28;20495;-67
2022/12/15 02:52:23;;;;;;;23.55;12.10;;;;;;;;;;5072008;28;20052;-67
2022/12/15 02:54:57;;;;;;;22.08;10.73;;;;;;;;;;5073296;28;20105;-67
2022/12/15 02:57:27;;;;;;;21.95;11.00;;;;;;;;;;5076006;28;20090;-67
2022/12/15 02:59:57;;;;;;;23.92;11.05;;;;;;;;;;5092265;28;20040;-67
2022/12/15 03:02:24;;;;;;;19.40;10.52;;;;;;;;;;5081856;28;20076;-67
2022/12/15 03:04:51;;;;;;;18.48;10.05;;;;;;;;;;5072342;28;20048;-67
2022/12/15 03:07:17;;;;;;;25.48;12.10;;;;;;;;;;5056573;28;20044;-67
2022/12/15 03:09:43;;;;;;;24.20;11.07;;;;;;;;;;5091009;28;20044;-67
2022/12/15 03:12:09;;;;;;;21.50;11.45;;;;;;;;;;5092694;28;20126;-68
2022/12/15 03:14:35;;;;;;;21.85;11.73;;;;;;;;;;5074210;28;20048;-67
2022/12/15 03:17:03;;;;;;;21.52;11.38;;;;;;;;;;5071059;28;20044;-67
2022/12/15 03:19:29;;;;;;;24.75;12.27;;;;;;;;;;5091758;28;20125;-67
2022/12/15 03:21:55;;;;;;;25.08;10.88;;;;;;;;;;5070633;28;20134;-66
2022/12/15 03:24:21;;;;;;;24.10;11.30;;;;;;;;;;5070984;28;20182;-66
2022/12/15 03:26:50;;;;;;;22.25;10.60;;;;;;;;;;5074543;28;20075;-66
2022/12/15 03:29:17;;;;;;;21.05;9.60;;;;;;;;;;5089470;28;20051;-66
2022/12/15 03:31:43;;;;;;;19.95;11.05;;;;;;;;;;5083363;28;20128;-66
2022/12/15 03:34:09;;;;;;;25.08;10.65;;;;;;;;;;5084202;28;20056;-66
2022/12/15 03:36:35;;;;;;;19.52;9.48;;;;;;;;;;5091489;28;20382;-66
2022/12/15 03:39:01;;;;;;;22.90;11.15;;;;;;;;;;5054171;28;20101;-66
2022/12/15 03:41:27;;;;;;;18.92;9.38;;;;;;;;;;5092064;28;20051;-66
2022/12/15 03:43:53;;;;;;;17.30;9.63;;;;;;;;;;5073699;28;20040;-66
2022/12/15 03:46:19;;;;;;;19.85;9.77;;;;;;;;;;5072456;28;20040;-67
2022/12/15 03:48:45;;;;;;;18.20;8.98;;;;;;;;;;5090346;28;20040;-66
2022/12/15 03:51:12;;;;;;;25.20;9.73;;;;;;;;;;5073755;28;20044;-66
2022/12/15 03:53:38;;;;;;;16.98;8.63;;;;;;;;;;5089032;28;20048;-66
2022/12/15 03:56:04;;;;;;;17.05;8.80;;;;;;;;;;5073297;28;20047;-66
2022/12/15 03:58:30;;;;;;;18.40;9.00;;;;;;;;;;5068064;28;20060;-67
2022/12/15 04:00:56;;;;;;;16.17;9.48;;;;;;;;;;5071763;28;20041;-66
2022/12/15 04:03:22;;;;;;;17.15;8.98;;;;;;;;;;5070910;28;20048;-66
2022/12/15 04:05:48;;;;;;;20.33;9.57;;;;;;;;;;5071381;28;20136;-66
2022/12/15 04:08:14;;;;;;;22.35;11.50;;;;;;;;;;5084398;28;20040;-66
2022/12/15 04:10:42;;;;;;;27.42;13.50;;;;;;;;;;5091208;28;20515;-67
2022/12/15 04:13:09;;;;;;;25.38;11.38;;;;;;;;;;5094768;28;20492;-66
2022/12/15 04:15:36;;;;;;;23.35;13.68;;;;;;;;;;5078485;28;20051;-66
2022/12/15 04:18:03;;;;;;;24.08;13.45;;;;;;;;;;5093606;28;20039;-67
2022/12/15 04:20:29;;;;;;;24.20;13.82;;;;;;;;;;5073673;28;20520;-66
2022/12/15 04:22:56;;;;;;;28.40;14.50;;;;;;;;;;5073824;28;20045;-66
2022/12/15 05:31:47;;;;;;;26.52;12.68;;;;;;;;;;5094418;28;20131;-66
2022/12/15 05:34:14;;;;;;;24.85;11.48;;;;;;;;;;5087780;28;20143;-66
2022/12/15 05:36:40;;;;;;;21.65;10.75;;;;;;;;;;5093109;28;20044;-66
2022/12/15 05:39:06;;;;;;;23.98;11.23;;;;;;;;;;5092929;28;20050;-67
2022/12/15 05:41:32;;;;;;;25.48;11.30;;;;;;;;;;5093877;28;20048;-67
2022/12/15 05:43:58;;;;;;;25.50;12.57;;;;;;;;;;5086777;28;20037;-67
2022/12/15 05:46:24;;;;;;;29.25;12.63;;;;;;;;;;5080874;28;20059;-67
2022/12/15 05:48:50;;;;;;;24.90;12.52;;;;;;;;;;5093220;28;20052;-67
2022/12/15 05:51:16;;;;;;;25.92;11.80;;;;;;;;;;5094463;28;20043;-67
2022/12/15 05:53:42;;;;;;;26.92;12.20;;;;;;;;;;5072316;28;20052;-67
2022/12/15 05:56:10;;;;;;;27.65;11.85;;;;;;;;;;5073065;28;20409;-67
2022/12/15 05:58:36;;;;;;;23.20;12.32;;;;;;;;;;5092078;28;20040;-66
2022/12/15 06:01:03;;;;;;;26.20;12.02;;;;;;;;;;5072105;28;20052;-67
2022/12/15 06:03:30;;;;;;;28.33;12.00;;;;;;;;;;5087015;28;20051;-67
2022/12/15 06:05:57;;;;;;;22.60;11.40;;;;;;;;;;5092465;28;20505;-67
2022/12/15 06:08:23;;;;;;;24.73;12.50;;;;;;;;;;5058285;28;20032;-67
2022/12/15 06:10:53;;;;;;;23.75;12.35;;;;;;;;;;5073183;28;20041;-67
2022/12/15 06:13:19;;;;;;;27.55;12.32;;;;;;;;;;5073688;28;20102;-67
2022/12/15 06:15:54;;;;;;;22.00;11.90;;;;;;;;;;5073381;28;20064;-67
2022/12/15 06:18:20;;;;;;;23.83;10.93;;;;;;;;;;5089099;28;20123;-67
2022/12/15 06:20:46;;;;;;;23.40;11.77;;;;;;;;;;5093251;28;20060;-67
2022/12/15 06:23:12;;;;;;;25.30;11.40;;;;;;;;;;5074231;28;20048;-67
2022/12/15 06:25:38;;;;;;;23.17;11.85;;;;;;;;;;5073213;28;20127;-68
2022/12/15 06:28:04;;;;;;;22.08;11.52;;;;;;;;;;5075642;28;20095;-68
2022/12/15 06:30:30;;;;;;;20.02;11.13;;;;;;;;;;5092659;28;20079;-67
2022/12/15 06:32:56;;;;;;;26.70;12.55;;;;;;;;;;5074844;28;20064;-67
2022/12/15 06:35:22;;;;;;;27.77;12.43;;;;;;;;;;5074986;28;20507;-67
2022/12/15 06:37:48;;;;;;;24.58;11.98;;;;;;;;;;5057355;28;20075;-67
2022/12/15 06:40:14;;;;;;;25.38;13.18;;;;;;;;;;5092626;28;20036;-68
2022/12/15 06:42:40;;;;;;;24.95;12.43;;;;;;;;;;5090488;28;20108;-68
2022/12/15 06:45:07;;;;;;;25.88;12.50;;;;;;;;;;5074621;28;20119;-67
2022/12/15 06:47:33;;;;;;;27.75;12.93;;;;;;;;;;5134651;22;20483;-68
2022/12/15 06:49:59;;;;;;;18.30;8.02;;;;;;;;;;5090760;28;20150;-68
2022/12/15 06:52:25;;;;;;;23.25;12.15;;;;;;;;;;5092552;28;20127;-68
2022/12/15 06:54:51;;;;;;;22.85;11.88;;;;;;;;;;5077788;28;20117;-68
2022/12/15 06:57:17;;;;;;;22.85;11.38;;;;;;;;;;5056089;28;20036;-68
2022/12/15 06:59:43;;;;;;;22.58;11.57;;;;;;;;;;5091905;28;20090;-68
2022/12/15 07:02:15;;;;;;;23.85;12.60;;;;;;;;;;5092627;28;20511;-68
2022/12/15 07:04:41;;;;;;;28.60;11.82;;;;;;;;;;5066596;28;20393;-68
2022/12/15 07:07:08;;;;;;;19.85;10.60;;;;;;;;;;5090949;28;20154;-68
2022/12/15 07:09:34;;;;;;;19.20;10.10;;;;;;;;;;5074687;28;20048;-68
2022/12/15 07:12:01;;;;;;;28.02;10.60;;;;;;;;;;5074441;28;20052;-68
2022/12/15 07:14:27;;;;;;;25.38;10.20;;;;;;;;;;5088076;28;20531;-68
2022/12/15 07:16:53;;;;;;;20.73;10.00;;;;;;;;;;5091680;28;20040;-67
2022/12/15 07:19:19;;;;;;;22.60;10.23;;;;;;;;;;5092782;28;20043;-67
2022/12/15 07:21:45;;;;;;;24.08;11.48;;;;;;;;;;5057015;28;20059;-68
2022/12/15 07:24:11;;;;;;;25.25;10.32;;;;;;;;;;5089858;28;20040;-67
2022/12/15 07:26:37;;;;;;;18.85;10.20;;;;;;;;;;5091719;28;20050;-67
2022/12/15 07:29:04;;;;;;;22.17;10.20;;;;;;;;;;5072673;28;20044;-67
2022/12/15 07:31:30;;;;;;;20.17;9.57;;;;;;;;;;5092504;28;20133;-67
2022/12/15 07:34:00;;;;;;;22.58;9.73;;;;;;;;;;5056312;28;20046;-66
2022/12/15 07:36:26;;;;;;;20.42;9.65;;;;;;;;;;5071067;28;20131;-66
2022/12/15 07:38:57;;;;;;;18.23;9.48;;;;;;;;;;5071204;28;20075;-66
2022/12/15 07:41:23;;;;;;;22.10;11.82;;;;;;;;;;5092163;28;20048;-66
2022/12/15 07:43:49;;;;;;;11.40;5.38;;;;;;;;;;5084553;28;20093;-66
2022/12/15 07:46:15;;;;;;;24.10;10.68;;;;;;;;;;5068365;28;20138;-66
2022/12/15 07:48:41;;;;;;;18.88;9.88;;;;;;;;;;5076321;28;20052;-66
2022/12/15 07:51:08;;;;;;;22.73;10.23;;;;;;;;;;5077677;28;20040;-66
2022/12/15 07:53:34;;;;;;;19.02;9.82;;;;;;;;;;5089641;28;20055;-66
2022/12/15 07:56:01;;;;;;;18.20;9.80;;;;;;;;;;5071361;28;20080;-66
2022/12/15 07:58:27;;;;;;;22.65;9.77;;;;;;;;;;5086826;28;20055;-66
2022/12/15 08:00:57;;;;;;;20.00;9.40;;;;;;;;;;5090599;28;20392;-66
2022/12/15 08:03:23;;;;;;;15.73;7.73;;;;;;;;;;5083399;28;20277;-66
2022/12/15 08:05:49;;;;;;;15.73;7.75;;;;;;;;;;5084909;28;20724;-66
2022/12/15 08:08:17;;;;;;;17.83;10.15;;;;;;;;;;5091840;28;20050;-66
2022/12/15 08:10:43;;;;;;;20.50;10.05;;;;;;;;;;5090327;28;20504;-66
2022/12/15 08:13:09;;;;;;;21.55;11.63;;;;;;;;;;5072111;28;20043;-66
2022/12/15 08:15:39;;;;;;;20.05;9.57;;;;;;;;;;5089061;28;20044;-66
2022/12/15 08:18:05;;;;;;;18.98;10.07;;;;;;;;;;5091499;28;20048;-66
2022/12/15 08:20:31;;;;;;;20.30;10.05;;;;;;;;;;5090055;28;20503;-66
2022/12/15 08:22:58;;;;;;;22.60;9.88;;;;;;;;;;5090464;28;20052;-66
2022/12/15 08:25:24;;;;;;;19.67;10.43;;;;;;;;;;5056663;28;20083;-66
2022/12/15 08:27:51;;;;;;;19.90;8.93;;;;;;;;;;5073326;28;20395;-66
2022/12/15 08:30:17;;;;;;;19.55;11.07;;;;;;;;;;5053843;28;20563;-66
2022/12/15 08:32:43;;;;;;;24.30;10.18;;;;;;;;;;5071193;28;20059;-66
2022/12/15 08:35:11;;;;;;;18.80;9.23;;;;;;;;;;5052585;28;20048;-66
2022/12/15 08:37:37;;;;;;;23.33;10.57;;;;;;;;;;5091434;28;20051;-66
2022/12/15 08:40:03;;;;;;;27.17;11.05;;;;;;;;;;5091112;28;20083;-66
2022/12/15 08:42:33;;;;;;;23.70;11.00;;;;;;;;;;5072326;28;20044;-66
2022/12/15 08:44:59;;;;;;;15.83;10.53;;;;;;;;;;5070429;28;20044;-66
2022/12/15 08:47:25;;;;;;;18.70;10.27;;;;;;;;;;5070888;28;20309;-66
2022/12/15 08:49:53;;;;;;;20.77;11.07;;;;;;;;;;5089846;28;20056;-66
2022/12/15 08:52:19;;;;;;;23.17;10.18;;;;;;;;;;5086423;28;20105;-66
2022/12/15 08:54:45;;;;;;;17.00;9.48;;;;;;;;;;5054779;28;20048;-66
2022/12/15 08:57:11;;;;;;;20.15;9.50;;;;;;;;;;5083287;28;20047;-66
2022/12/15 08:59:37;;;;;;;15.57;9.55;;;;;;;;;;5076283;28;20408;-66
2022/12/15 09:02:03;;;;;;;18.13;10.25;;;;;;;;;;5075675;28;20040;-66
2022/12/15 09:04:29;;;;;;;27.00;12.20;;;;;;;;;;5075016;28;20054;-67
2022/12/15 09:06:55;;;;;;;20.38;10.57;;;;;;;;;;5093949;28;20048;-66
2022/12/15 09:09:22;;;;;;;23.33;10.85;;;;;;;;;;5094589;28;20541;-66
2022/12/15 09:11:48;;;;;;;17.50;10.38;;;;;;;;;;5094330;28;20043;-66
2022/12/15 09:14:15;;;;;;;18.92;10.50;;;;;;;;;;5093297;28;20052;-65
2022/12/15 09:16:41;;;;;;;27.17;10.48;;;;;;;;;;5076214;28;20097;-65
2022/12/15 09:19:08;;;;;;;23.50;12.07;;;;;;;;;;5075780;28;20052;-65
2022/12/15 09:21:35;;;;;;;17.27;10.77;;;;;;;;;;5093905;28;20082;-65
2022/12/15 09:24:01;;;;;;;24.55;12.10;;;;;;;;;;5091822;28;20134;-65
2022/12/15 09:26:32;;;;;;;19.10;10.35;;;;;;;;;;5090440;28;20120;-66
2022/12/15 09:28:59;;;;;;;23.33;10.38;;;;;;;;;;5074765;28;20485;-65
2022/12/15 09:31:27;;;;;;;21.63;10.95;;;;;;;;;;5083468;28;20041;-65
2022/12/15 09:33:54;;;;;;;18.52;9.60;;;;;;;;;;5058630;28;20054;-65
2022/12/15 09:36:21;;;;;;;17.27;9.25;;;;;;;;;;5075105;28;20119;-63
2022/12/15 09:38:47;;;;;;;26.10;9.93;;;;;;;;;;5086271;28;20051;-65
2022/12/15 09:41:16;;;;;;;20.83;10.25;;;;;;;;;;5090298;28;20051;-65
2022/12/15 09:43:57;;;;;;;21.23;10.63;;;;;;;;;;5090296;28;20044;-66
2022/12/15 09:46:23;;;;;;;20.08;10.70;;;;;;;;;;5074799;28;20044;-65
2022/12/15 09:48:50;;;;;;;23.90;12.05;;;;;;;;;;5061349;28;20094;-65
2022/12/15 09:51:17;;;;;;;19.52;9.98;;;;;;;;;;5074072;28;20493;-65
2022/12/15 09:53:43;;;;;;;18.17;8.35;;;;;;;;;;5041964;28;20063;-65
2022/12/15 09:56:21;;;;;;;19.55;11.50;;;;;;;;;;5061181;28;20400;-65
2022/12/15 09:58:53;;;;;;;20.00;10.00;;;;;;;;;;5058601;28;20055;-65
2022/12/15 10:01:42;;;;;;;23.70;11.00;;;;;;;;;;5075722;28;20051;-65
2022/12/15 10:04:29;;;;;;;21.27;11.50;;;;;;;;;;5087823;28;20044;-65
2022/12/15 10:07:05;;;;;;;21.88;10.73;;;;;;;;;;5062596;28;20118;-65
2022/12/15 10:09:31;;;;;;;17.67;10.35;;;;;;;;;;5092777;28;20388;-65
2022/12/15 10:12:11;;;;;;;19.50;9.82;;;;;;;;;;5092020;28;20083;-65
2022/12/15 10:14:50;;;;;;;20.85;11.93;;;;;;;;;;5073686;28;20083;-65
2022/12/15 10:17:24;;;;;;;20.75;11.45;;;;;;;;;;5082853;28;20052;-65
2022/12/15 10:20:04;;;;;;;14.32;7.90;;;;;;;;;;5093100;28;20054;-66
2022/12/15 10:22:31;;;;;;;18.23;10.20;;;;;;;;;;5090868;28;20082;-66
2022/12/15 10:25:01;;;;;;;17.63;9.57;;;;;;;;;;5060107;28;20560;-66
2022/12/15 10:27:41;;;;;;;17.15;9.18;;;;;;;;;;5084008;28;20515;-66
2022/12/15 10:30:08;;;;;;;17.52;8.85;;;;;;;;;;5084085;28;20115;-66
2022/12/15 10:32:55;;;;;;;16.52;7.97;;;;;;;;;;5077931;28;20127;-66
2022/12/15 10:35:29;;;;;;;19.63;10.00;;;;;;;;;;5041972;28;20048;-66
2022/12/15 10:37:58;;;;;;;17.95;9.95;;;;;;;;;;5092458;28;20051;-64
2022/12/15 10:40:42;;;;;;;16.52;9.70;;;;;;;;;;5093305;28;20062;-63
2022/12/15 10:43:13;;;;;;;16.45;7.93;;;;;;;;;;5077142;28;20044;-66
2022/12/15 10:45:39;;;;;;;;;;;;;;;;;;5055154;28;20056;-66
2022/12/15 10:48:05;;;;;;;11.05;5.60;;;;;;;;;;5071407;28;19920;-64
2022/12/15 10:50:32;;;;;;;19.80;10.23;;;;;;;;;;5091875;28;20569;-64
2022/12/15 10:52:58;;;;;;;17.73;8.50;;;;;;;;;;5084321;28;20040;-65
2022/12/15 10:55:30;;;;;;;14.48;8.05;;;;;;;;;;5072696;28;20044;-64
2022/12/15 10:57:58;;;;;;;15.50;8.18;;;;;;;;;;5072693;28;20041;-64
2022/12/15 11:00:26;;;;;;;14.80;8.65;;;;;;;;;;5075632;28;20116;-64
2022/12/15 11:02:53;;;;;;;15.75;7.25;;;;;;;;;;5086136;28;20048;-64
2022/12/15 11:05:19;;;;;;;12.93;7.35;;;;;;;;;;5090257;22;20508;-64
2022/12/15 11:07:49;;;;;;;15.77;7.00;;;;;;;;;;5072242;28;20063;-64
2022/12/15 11:10:18;;;;;;;20.98;7.95;;;;;;;;;;5036566;28;20059;-63
2022/12/15 11:12:53;;;;;;;14.95;7.50;;;;;;;;;;5036582;28;20139;-64
2022/12/15 11:15:22;;;;;;;17.67;8.00;;;;;;;;;;5072516;28;20044;-63
2022/12/15 11:18:06;;;;;;;12.75;7.32;;;;;;;;;;5062195;28;20043;-64
2022/12/15 11:20:34;;;;;;;16.70;7.50;;;;;;;;;;5068857;28;20124;-65
2022/12/15 11:23:03;;;;;;;16.30;7.53;;;;;;;;;;5051636;28;20490;-63
2022/12/15 11:25:29;;;;;;;15.43;7.70;;;;;;;;;;5064069;22;20243;-64
2022/12/15 11:27:57;;;;;;;18.08;7.60;;;;;;;;;;5069995;28;20064;-63
2022/12/15 11:30:25;;;;;;;16.48;7.38;;;;;;;;;;5053820;28;20094;-63
2022/12/15 11:32:54;;;;;;;21.02;8.82;;;;;;;;;;5071327;28;20123;-63
2022/12/15 11:35:27;;;;;;;15.15;7.63;;;;;;;;;;5071609;28;20059;-64
2022/12/15 11:37:58;;;;;;;17.33;8.75;;;;;;;;;;5070576;28;20045;-63
2022/12/15 11:40:28;;;;;;;16.10;8.20;;;;;;;;;;5070932;28;20048;-63
2022/12/15 11:43:09;;;;;;;16.60;8.13;;;;;;;;;;5053120;28;20052;-63
2022/12/15 11:46:01;;;;;;;17.92;8.23;;;;;;;;;;5068802;28;20408;-63
2022/12/15 11:48:33;;;;;;;15.95;8.05;;;;;;;;;;5063123;28;20075;-63
2022/12/15 11:51:02;;;;;;;12.18;7.28;;;;;;;;;;5067730;28;20954;-63
2022/12/15 11:53:34;;;;;;;17.92;7.75;;;;;;;;;;5047443;28;20603;-63
2022/12/15 11:56:07;;;;;;;14.55;8.13;;;;;;;;;;5069750;28;20037;-63
2022/12/15 11:58:33;;;;;;;18.90;8.23;;;;;;;;;;5071521;28;20048;-63
2022/12/15 12:01:06;;;;;;;17.83;7.88;;;;;;;;;;5070610;28;20044;-63
2022/12/15 12:03:32;;;;;;;15.82;8.10;;;;;;;;;;5068899;28;20048;-62
2022/12/15 12:06:13;;;;;;;20.27;8.55;;;;;;;;;;5055849;28;20045;-63
2022/12/15 12:08:39;;;;;;;;;;;;;;;;;;5062735;28;20080;-63
2022/12/15 12:11:12;;;;;;;11.75;6.75;;;;;;;;;;5066479;28;19920;-63
2022/12/15 12:13:41;;;;;;;21.13;8.13;;;;;;;;;;5070682;28;20059;-62
2022/12/15 12:16:24;;;;;;;14.60;7.43;;;;;;;;;;5071111;28;20044;-63
2022/12/15 12:19:01;;;;;;;13.57;6.22;;;;;;;;;;5026396;28;20053;-63
2022/12/15 12:21:39;;;;;;;13.70;6.80;;;;;;;;;;5051666;28;20052;-63
2022/12/15 12:24:11;;;;;;;15.07;6.60;;;;;;;;;;5069148;28;20057;-62
2022/12/15 12:26:49;;;;;;;13.38;5.88;;;;;;;;;;5070965;28;20056;-62
2022/12/15 12:29:25;;;;;;;15.07;7.35;;;;;;;;;;5071663;28;20053;-62
2022/12/15 12:31:57;;;;;;;11.65;6.55;;;;;;;;;;5066539;28;20040;-63
2022/12/15 12:34:25;;;;;;;14.23;7.05;;;;;;;;;;5074289;28;20052;-63
2022/12/15 12:36:52;;;;;;;13.70;6.70;;;;;;;;;;5074667;28;20048;-63
2022/12/15 12:39:23;;;;;;;14.00;7.47;;;;;;;;;;5074886;28;20040;-63
2022/12/15 12:41:55;;;;;;;17.15;7.18;;;;;;;;;;5057856;28;20036;-63
2022/12/15 12:44:28;;;;;;;13.82;6.90;;;;;;;;;;5063205;28;20092;-63
2022/12/15 12:46:55;;;;;;;16.15;6.90;;;;;;;;;;5071839;28;20404;-63
2022/12/15 12:49:33;;;;;;;13.88;6.07;;;;;;;;;;5047458;28;20124;-63
2022/12/15 12:52:02;;;;;;;13.93;6.38;;;;;;;;;;5060808;28;20045;-63
2022/12/15 12:54:37;;;;;;;18.58;6.55;;;;;;;;;;5064755;28;20059;-64
2022/12/15 12:57:13;;;;;;;12.50;5.25;;;;;;;;;;5060144;28;20040;-63
2022/12/15 12:59:44;;;;;;;13.15;6.72;;;;;;;;;;5041852;28;20067;-63
2022/12/15 13:02:23;;;;;;;13.27;6.20;;;;;;;;;;5065666;28;20040;-63
2022/12/15 13:05:27;;;;;;;15.55;6.55;;;3.00;99.90;;;;;;5043220;28;20057;-63
2022/12/15 13:07:56;;;;;;;14.48;7.10;;;;;;;;;;5068194;28;20480;-63
2022/12/15 13:10:24;;;;;;;13.95;5.93;;;;;;;;;;5073488;28;20047;-63
2022/12/15 13:12:51;;;;;;;17.13;6.75;;;;;;;;;;5072001;28;20102;-63
2022/12/15 13:15:41;;;;;;;14.85;6.50;;;2.80;99.90;;;;;;5072996;28;20452;-63
2022/12/15 13:18:07;;;;;;;12.47;6.00;;;;;;;;;;5056971;28;20051;-63
2022/12/15 13:20:35;;;;;;;15.63;7.43;;;;;;;;;;5074298;28;20049;-63
2022/12/15 13:23:33;;;;;;;12.80;6.47;;;;;;;;;;5065528;28;20149;-63
2022/12/15 13:25:59;;;;;;;21.48;7.53;;;;;;;;;;5042372;28;20408;-64
2022/12/15 13:28:38;;;;;;;14.35;5.80;;;;;;;;;;5074080;28;20056;-64
2022/12/15 13:31:19;;;;;;;16.65;6.43;;;;;;;;;;5055710;28;20048;-63
2022/12/15 13:33:51;;;;;;;14.18;6.05;;;;;;;;;;5074129;28;20087;-63
2022/12/15 13:36:39;;;;;;;17.30;6.85;;;;;;;;;;5074118;28;20048;-63
2022/12/15 13:39:11;;;;;;;13.13;6.72;;;;;;;;;;5073516;28;20067;-64
2022/12/15 13:41:40;;;;;;;14.50;5.95;;;;;;;;;;5073672;28;20044;-63
2022/12/15 13:44:28;;;;;;;20.20;6.28;;;;;;;;;;5055191;28;20047;-63
2022/12/15 13:46:54;;;;;;;13.35;5.68;;;;;;;;;;5073862;28;20056;-63
2022/12/15 13:49:24;;;;;;;13.25;5.80;;;;;;;;;;5055777;28;20119;-63
2022/12/15 13:51:50;;;;;;;12.30;5.95;;;;;;;;;;5072867;28;20044;-63
2022/12/15 13:54:19;;;;;;;15.57;7.45;;;;;;;;;;5073112;28;20050;-63
2022/12/15 13:56:54;;;;;;;16.08;6.63;;;;;;;;;;5073273;28;20044;-63
2022/12/15 13:59:41;;;;;;;15.80;6.70;;;;;;;;;;5055654;28;20495;-63
2022/12/15 14:02:23;;;;;;;18.80;6.85;;;;;;;;;;5067025;28;20040;-63
2022/12/15 14:05:05;;;;;;;16.65;7.20;;;;;;;;;;5072839;28;20131;-63
2022/12/15 14:07:32;;;;;;;18.20;6.82;;;;;;;;;;5060022;28;20500;-63
2022/12/15 14:09:59;;;;;;;19.75;6.97;;;;;;;;;;5059622;28;20091;-63
2022/12/15 14:12:25;;;;;;;14.93;6.55;;;;;;;;;;5060644;28;20141;-63
2022/12/15 14:14:51;;;;;;;15.32;6.72;;;;;;;;;;5035572;28;20052;-63
2022/12/15 14:17:19;;;;;;;12.55;6.55;;;;;;;;;;5053346;28;20055;-63
2022/12/15 14:19:49;;;;;;;17.63;8.50;;;;;;;;;;5062553;28;20119;-64
2022/12/15 14:22:20;;;;;;;15.53;6.87;;;;;;;;;;5054541;28;20056;-63
2022/12/15 14:24:47;;;;;;;15.25;7.15;;;;;;;;;;5072835;28;20365;-63
2022/12/15 14:27:26;;;;;;;18.48;7.88;;;;;;;;;;5072484;28;20542;-63
2022/12/15 14:30:13;;;;;;;16.20;8.23;;;3.10;99.90;;;;;;5072790;28;20102;-63
2022/12/15 14:32:40;;;;;;;18.88;8.57;;;;;;;;;;5072119;28;20055;-63
2022/12/15 14:35:08;;;;;;;21.08;9.10;;;;;;;;;;5068192;28;20404;-63
2022/12/15 14:37:34;;;;;;;20.45;9.93;;;;;;;;;;5072629;28;20044;-63
2022/12/15 14:40:00;;;;;;;18.42;9.63;;;;;;;;;;5065135;28;20106;-63
2022/12/15 14:42:27;;;;;;;15.93;8.73;;;;;;;;;;5066998;28;20079;-63
2022/12/15 14:44:55;;;;;;;19.95;10.13;;;;;;;;;;5070612;28;20459;-63
2022/12/15 14:47:31;;;;;;;20.77;9.82;;;;;;;;;;5072170;28;20051;-63
2022/12/15 14:49:57;;;;;;;21.75;10.43;;;;;;;;;;5063995;28;20459;-63
2022/12/15 14:52:23;;;;;;;20.05;9.82;;;;;;;;;;5099678;22;20074;-63
2022/12/15 14:55:31;;;;;;;20.02;10.60;;;2.50;99.90;;;;;;5048305;28;20052;-63
2022/12/15 14:57:57;;;;;;;23.55;11.45;;;;;;;;;;5040265;28;20044;-63
2022/12/15 15:00:47;;;;;;;18.95;9.07;;;;;;;;;;5054701;28;20047;-63
2022/12/15 15:03:17;;;;;;;19.88;11.73;;;;;;;;;;5064187;28;20043;-63
2022/12/15 15:05:52;;;;;;;27.58;13.05;;;;;;;;;;5071820;28;20047;-63
2022/12/15 15:08:29;;;;;;;30.70;14.68;;;;;;;;;;5091481;22;20523;-63
2022/12/15 15:10:56;;;;;;;36.70;16.90;;;;;;;;;;5076254;28;20083;-63
2022/12/15 15:13:25;;;;;;;33.78;15.20;;;;;;;;;;5071418;28;20037;-63
2022/12/15 15:15:52;;;;;;;42.53;19.35;;;;;;;;;;5069051;28;20473;-62
2022/12/15 15:18:21;;;;;;;41.83;20.17;;;;;;;;;;5069742;28;20044;-62
2022/12/15 15:20:51;;;;;;;37.67;18.42;;;;;;;;;;5069227;28;20489;-62
2022/12/15 15:23:17;;;;;;;43.20;20.90;;;;;;;;;;5071091;28;20065;-62
2022/12/15 15:25:51;;;;;;;34.50;18.30;;;;;;;;;;5070865;28;20275;-62
2022/12/15 15:28:17;;;;;;;39.38;18.25;;;;;;;;;;5051934;28;20404;-61
2022/12/15 15:30:48;;;;;;;34.22;17.70;;;;;;;;;;5069445;28;20493;-62
2022/12/15 15:33:14;;;;;;;34.97;17.83;;;;;;;;;;5069748;28;20068;-62
2022/12/15 15:35:41;;;;;;;27.70;12.30;;;;;;;;;;5070152;28;20060;-62
2022/12/15 15:38:25;;;;;;;37.35;17.77;;;;;;;;;;5085575;28;20115;-62
2022/12/15 15:40:55;;;;;;;38.80;18.55;;;;;;;;;;5083727;28;20048;-63
2022/12/15 15:43:22;;;;;;;36.78;19.42;;;;;;;;;;5047258;28;20036;-63
2022/12/15 15:45:50;;;;;;;42.05;19.05;;;;;;;;;;5091969;28;20052;-63
2022/12/15 15:48:27;;;;;;;42.20;20.23;;;;;;;;;;5071122;28;20053;-63
2022/12/15 15:50:53;;;;;;;41.53;21.52;;;;;;;;;;5060327;28;20131;-64
2022/12/15 15:53:22;;;;;;;38.33;20.08;;;;;;;;;;5057165;28;20167;-63
2022/12/15 15:55:49;;;;;;;44.45;20.40;;;;;;;;;;5073416;28;20063;-63
2022/12/15 15:58:15;;;;;;;36.35;18.42;;;;;;;;;;5091912;28;20048;-63
2022/12/15 16:00:41;;;;;;;34.90;17.13;;;;;;;;;;5086829;28;20109;-64
2022/12/15 16:03:08;;;;;;;30.05;16.48;;;;;;;;;;5072099;28;20076;-63
2022/12/15 16:05:34;;;;;;;25.17;11.55;;;;;;;;;;5069886;28;20123;-63
2022/12/15 16:08:01;;;;;;;26.20;13.80;;;;;;;;;;5063441;28;20048;-63
2022/12/15 16:10:31;;;;;;;22.35;13.48;;;;;;;;;;5060694;28;20037;-63
2022/12/15 16:12:59;;;;;;;20.60;13.35;;;;;;;;;;5056771;28;20048;-63
2022/12/15 16:15:26;;;;;;;26.45;13.35;;;;;;;;;;5039766;28;20048;-63
2022/12/15 16:17:53;;;;;;;21.67;12.43;;;;;;;;;;5063117;28;20572;-63
2022/12/15 16:20:20;;;;;;;22.30;12.88;;;;;;;;;;5074212;28;20489;-64
2022/12/15 16:22:48;;;;;;;24.50;13.55;;;;;;;;;;5095619;28;20093;-64
2022/12/15 16:25:23;;;;;;;22.83;13.43;;;;;;;;;;5074574;28;20080;-63
2022/12/15 16:27:49;;;;;;;24.85;12.95;;;;;;;;;;5057281;28;20048;-63
2022/12/15 16:30:16;;;;;;;24.00;13.65;;;;;;;;;;5041273;28;20106;-63
2022/12/15 16:32:42;;;;;;;24.38;13.13;;;;;;;;;;5074983;28;20044;-63
2022/12/15 16:35:09;;;;;;;31.95;14.27;;;;;;;;;;5056860;28;20055;-63
2022/12/15 16:37:36;;;;;;;25.52;12.55;;;;;;;;;;5075186;28;20127;-63
2022/12/15 16:40:02;;;;;;;34.70;15.93;;;;;;;;;;5075040;28;20052;-63
2022/12/15 16:42:28;;;;;;;26.33;15.32;;;;;;;;;;5057275;28;20052;-63
2022/12/15 16:44:54;;;;;;;27.67;15.35;;;;;;;;;;5074104;28;20097;-63
2022/12/15 16:47:20;;;;;;;33.63;16.63;;;;;;;;;;5074500;28;20458;-63
2022/12/15 16:49:46;;;;;;;32.78;16.25;;;;;;;;;;5074647;28;20045;-64
2022/12/15 16:52:19;;;;;;;33.00;16.88;;;;;;;;;;5075081;28;20093;-63